sensor_id;sensor_type;location;lat;lon;timestamp;P1;durP1;ratioP1;P2;durP2;ratioP2
47429;SDS011;33181;49.246;7.372;2023-03-21T00:01:21;21.90;;;12.30;;
47429;SDS011;33181;49.246;7.372;2023-03-21T00:03:46;17.80;;;11.87;;
47429;SDS011;33181;49.246;7.372;2023-03-21T00:06:13;17.70;;;10.93;;
47429;SDS011;33181;49.246;7.372;2023-03-21T00:08:39;14.50;;;10.60;;
47429;SDS011;33181;49.246;7.372;2023-03-21T00:11:09;16.13;;;10.50;;
47429;SDS011;33181;49.246;7.372;2023-03-21T00:13:39;15.17;;;10.30;;
47429;SDS011;33181;49.246;7.372;2023-03-21T00:16:08;15.90;;;10.90;;
47429;SDS011;33181;49.246;7.372;2023-03-21T00:18:44;18.10;;;10.83;;
47429;SDS011;33181;49.246;7.372;2023-03-21T00:21:16;15.67;;;11.23;;
47429;SDS011;33181;49.246;7.372;2023-03-21T00:23:44;17.47;;;12.60;;
47429;SDS011;33181;49.246;7.372;2023-03-21T00:26:11;18.67;;;12.47;;
47429;SDS011;33181;49.246;7.372;2023-03-21T00:28:38;16.03;;;11.60;;
47429;SDS011;33181;49.246;7.372;2023-03-21T00:31:05;17.03;;;11.60;;
47429;SDS011;33181;49.246;7.372;2023-03-21T00:33:32;15.77;;;11.03;;
47429;SDS011;33181;49.246;7.372;2023-03-21T00:35:59;16.73;;;11.10;;
47429;SDS011;33181;49.246;7.372;2023-03-21T00:38:26;15.30;;;11.07;;
47429;SDS011;33181;49.246;7.372;2023-03-21T00:40:52;14.57;;;9.13;;
47429;SDS011;33181;49.246;7.372;2023-03-21T00:43:18;14.27;;;10.20;;
47429;SDS011;33181;49.246;7.372;2023-03-21T00:45:47;15.03;;;10.10;;
47429;SDS011;33181;49.246;7.372;2023-03-21T00:48:15;15.27;;;10.40;;
47429;SDS011;33181;49.246;7.372;2023-03-21T00:50:43;18.80;;;11.10;;
47429;SDS011;33181;49.246;7.372;2023-03-21T00:53:11;17.03;;;10.50;;
47429;SDS011;33181;49.246;7.372;2023-03-21T00:55:39;13.80;;;10.20;;
47429;SDS011;33181;49.246;7.372;2023-03-21T00:58:05;16.87;;;10.73;;
47429;SDS011;33181;49.246;7.372;2023-03-21T01:00:31;16.67;;;10.50;;
47429;SDS011;33181;49.246;7.372;2023-03-21T01:03:01;14.47;;;10.57;;
47429;SDS011;33181;49.246;7.372;2023-03-21T01:05:41;14.30;;;9.87;;
47429;SDS011;33181;49.246;7.372;2023-03-21T01:08:29;16.47;;;10.50;;
47429;SDS011;33181;49.246;7.372;2023-03-21T01:11:05;14.20;;;10.20;;
47429;SDS011;33181;49.246;7.372;2023-03-21T01:13:34;15.90;;;10.27;;
47429;SDS011;33181;49.246;7.372;2023-03-21T01:16:00;18.10;;;10.30;;
47429;SDS011;33181;49.246;7.372;2023-03-21T01:18:29;13.97;;;10.77;;
47429;SDS011;33181;49.246;7.372;2023-03-21T01:20:57;16.43;;;11.20;;
47429;SDS011;33181;49.246;7.372;2023-03-21T01:23:25;14.50;;;10.47;;
47429;SDS011;33181;49.246;7.372;2023-03-21T01:25:53;12.13;;;10.10;;
47429;SDS011;33181;49.246;7.372;2023-03-21T01:28:20;16.93;;;11.00;;
47429;SDS011;33181;49.246;7.372;2023-03-21T01:30:49;14.07;;;10.30;;
47429;SDS011;33181;49.246;7.372;2023-03-21T01:33:17;17.67;;;10.43;;
47429;SDS011;33181;49.246;7.372;2023-03-21T01:35:43;15.90;;;9.57;;
47429;SDS011;33181;49.246;7.372;2023-03-21T01:38:10;15.93;;;10.30;;
47429;SDS011;33181;49.246;7.372;2023-03-21T01:40:37;13.77;;;9.57;;
47429;SDS011;33181;49.246;7.372;2023-03-21T01:43:08;13.57;;;10.27;;
47429;SDS011;33181;49.246;7.372;2023-03-21T01:48:45;16.70;;;10.17;;
47429;SDS011;33181;49.246;7.372;2023-03-21T01:51:20;13.67;;;9.40;;
47429;SDS011;33181;49.246;7.372;2023-03-21T01:53:47;15.90;;;9.87;;
47429;SDS011;33181;49.246;7.372;2023-03-21T01:56:33;14.90;;;10.13;;
47429;SDS011;33181;49.246;7.372;2023-03-21T01:59:08;15.47;;;9.80;;
47429;SDS011;33181;49.246;7.372;2023-03-21T02:01:45;14.33;;;9.70;;
47429;SDS011;33181;49.246;7.372;2023-03-21T02:04:13;13.33;;;9.00;;
47429;SDS011;33181;49.246;7.372;2023-03-21T02:06:41;14.70;;;9.50;;
47429;SDS011;33181;49.246;7.372;2023-03-21T02:09:21;14.77;;;10.00;;
47429;SDS011;33181;49.246;7.372;2023-03-21T02:11:52;14.17;;;9.90;;
47429;SDS011;33181;49.246;7.372;2023-03-21T02:14:19;16.17;;;10.70;;
47429;SDS011;33181;49.246;7.372;2023-03-21T02:16:51;13.17;;;9.40;;
47429;SDS011;33181;49.246;7.372;2023-03-21T02:32:03;17.80;;;9.50;;
47429;SDS011;33181;49.246;7.372;2023-03-21T02:38:08;12.97;;;9.37;;
47429;SDS011;33181;49.246;7.372;2023-03-21T02:48:46;18.30;;;9.90;;
47429;SDS011;33181;49.246;7.372;2023-03-21T02:51:33;13.30;;;9.50;;
47429;SDS011;33181;49.246;7.372;2023-03-21T02:54:02;13.20;;;8.93;;
47429;SDS011;33181;49.246;7.372;2023-03-21T02:56:35;14.07;;;9.73;;
47429;SDS011;33181;49.246;7.372;2023-03-21T02:59:04;13.60;;;9.27;;
47429;SDS011;33181;49.246;7.372;2023-03-21T03:01:31;12.17;;;8.90;;
47429;SDS011;33181;49.246;7.372;2023-03-21T03:03:58;11.20;;;8.40;;
47429;SDS011;33181;49.246;7.372;2023-03-21T03:06:28;14.57;;;9.00;;
47429;SDS011;33181;49.246;7.372;2023-03-21T03:09:24;9.90;;;8.23;;
47429;SDS011;33181;49.246;7.372;2023-03-21T03:15:31;14.13;;;8.90;;
47429;SDS011;33181;49.246;7.372;2023-03-21T03:24:21;11.27;;;8.27;;
47429;SDS011;33181;49.246;7.372;2023-03-21T03:27:14;11.40;;;8.00;;
47429;SDS011;33181;49.246;7.372;2023-03-21T03:29:46;11.30;;;8.93;;
47429;SDS011;33181;49.246;7.372;2023-03-21T03:34:54;20.77;;;9.00;;
47429;SDS011;33181;49.246;7.372;2023-03-21T03:37:22;15.00;;;8.33;;
47429;SDS011;33181;49.246;7.372;2023-03-21T03:39:59;14.53;;;8.83;;
47429;SDS011;33181;49.246;7.372;2023-03-21T03:42:42;12.90;;;7.97;;
47429;SDS011;33181;49.246;7.372;2023-03-21T03:45:15;10.50;;;8.40;;
47429;SDS011;33181;49.246;7.372;2023-03-21T03:48:24;11.90;;;8.03;;
47429;SDS011;33181;49.246;7.372;2023-03-21T03:51:08;11.23;;;7.97;;
47429;SDS011;33181;49.246;7.372;2023-03-21T03:53:59;13.10;;;8.47;;
47429;SDS011;33181;49.246;7.372;2023-03-21T03:56:30;12.37;;;8.13;;
47429;SDS011;33181;49.246;7.372;2023-03-21T03:58:56;11.00;;;8.03;;
47429;SDS011;33181;49.246;7.372;2023-03-21T04:01:22;12.43;;;8.57;;
47429;SDS011;33181;49.246;7.372;2023-03-21T04:03:48;14.87;;;8.67;;
47429;SDS011;33181;49.246;7.372;2023-03-21T04:06:15;12.77;;;8.00;;
47429;SDS011;33181;49.246;7.372;2023-03-21T04:08:42;14.63;;;9.37;;
47429;SDS011;33181;49.246;7.372;2023-03-21T04:11:09;15.43;;;9.53;;
47429;SDS011;33181;49.246;7.372;2023-03-21T04:13:37;15.67;;;10.50;;
47429;SDS011;33181;49.246;7.372;2023-03-21T04:16:03;18.67;;;10.17;;
47429;SDS011;33181;49.246;7.372;2023-03-21T04:18:32;16.00;;;10.10;;
47429;SDS011;33181;49.246;7.372;2023-03-21T04:20:58;13.67;;;9.20;;
47429;SDS011;33181;49.246;7.372;2023-03-21T04:23:25;14.70;;;9.40;;
47429;SDS011;33181;49.246;7.372;2023-03-21T04:25:53;16.87;;;9.27;;
47429;SDS011;33181;49.246;7.372;2023-03-21T04:28:20;14.00;;;9.00;;
47429;SDS011;33181;49.246;7.372;2023-03-21T04:30:47;13.87;;;9.20;;
47429;SDS011;33181;49.246;7.372;2023-03-21T04:33:13;15.40;;;9.00;;
47429;SDS011;33181;49.246;7.372;2023-03-21T04:35:39;14.60;;;9.60;;
47429;SDS011;33181;49.246;7.372;2023-03-21T04:38:06;15.57;;;9.40;;
47429;SDS011;33181;49.246;7.372;2023-03-21T04:40:32;15.80;;;9.03;;
47429;SDS011;33181;49.246;7.372;2023-03-21T04:42:58;12.53;;;9.00;;
47429;SDS011;33181;49.246;7.372;2023-03-21T04:45:25;12.63;;;8.63;;
47429;SDS011;33181;49.246;7.372;2023-03-21T04:47:50;13.37;;;8.53;;
47429;SDS011;33181;49.246;7.372;2023-03-21T04:50:16;11.80;;;8.70;;
47429;SDS011;33181;49.246;7.372;2023-03-21T04:52:42;13.43;;;9.63;;
47429;SDS011;33181;49.246;7.372;2023-03-21T04:55:08;15.50;;;9.93;;
47429;SDS011;33181;49.246;7.372;2023-03-21T04:57:38;14.37;;;9.50;;
47429;SDS011;33181;49.246;7.372;2023-03-21T05:00:05;14.00;;;10.30;;
47429;SDS011;33181;49.246;7.372;2023-03-21T05:02:37;12.00;;;9.53;;
47429;SDS011;33181;49.246;7.372;2023-03-21T05:05:03;16.73;;;8.40;;
47429;SDS011;33181;49.246;7.372;2023-03-21T05:07:30;10.77;;;8.37;;
47429;SDS011;33181;49.246;7.372;2023-03-21T05:09:56;12.47;;;8.27;;
47429;SDS011;33181;49.246;7.372;2023-03-21T05:12:23;15.50;;;9.33;;
47429;SDS011;33181;49.246;7.372;2023-03-21T05:14:49;13.50;;;8.67;;
47429;SDS011;33181;49.246;7.372;2023-03-21T05:17:14;12.00;;;8.50;;
47429;SDS011;33181;49.246;7.372;2023-03-21T05:19:47;11.27;;;8.33;;
47429;SDS011;33181;49.246;7.372;2023-03-21T05:22:14;12.50;;;8.03;;
47429;SDS011;33181;49.246;7.372;2023-03-21T05:24:43;13.50;;;8.10;;
47429;SDS011;33181;49.246;7.372;2023-03-21T05:27:17;12.17;;;8.60;;
47429;SDS011;33181;49.246;7.372;2023-03-21T05:30:00;12.00;;;8.00;;
47429;SDS011;33181;49.246;7.372;2023-03-21T05:32:32;10.40;;;8.03;;
47429;SDS011;33181;49.246;7.372;2023-03-21T05:34:58;12.33;;;7.97;;
47429;SDS011;33181;49.246;7.372;2023-03-21T05:37:24;10.90;;;8.70;;
47429;SDS011;33181;49.246;7.372;2023-03-21T05:39:50;12.13;;;9.10;;
47429;SDS011;33181;49.246;7.372;2023-03-21T05:42:19;11.97;;;9.10;;
47429;SDS011;33181;49.246;7.372;2023-03-21T05:44:45;14.10;;;8.57;;
47429;SDS011;33181;49.246;7.372;2023-03-21T05:47:12;11.40;;;8.57;;
47429;SDS011;33181;49.246;7.372;2023-03-21T05:49:40;11.57;;;8.20;;
47429;SDS011;33181;49.246;7.372;2023-03-21T05:52:06;13.23;;;9.23;;
47429;SDS011;33181;49.246;7.372;2023-03-21T05:54:33;16.23;;;10.03;;
47429;SDS011;33181;49.246;7.372;2023-03-21T05:57:00;14.23;;;10.17;;
47429;SDS011;33181;49.246;7.372;2023-03-21T05:59:26;14.53;;;9.47;;
47429;SDS011;33181;49.246;7.372;2023-03-21T06:01:52;13.33;;;9.87;;
47429;SDS011;33181;49.246;7.372;2023-03-21T06:04:17;13.07;;;8.60;;
47429;SDS011;33181;49.246;7.372;2023-03-21T06:06:45;13.90;;;9.67;;
47429;SDS011;33181;49.246;7.372;2023-03-21T06:09:11;16.93;;;11.10;;
47429;SDS011;33181;49.246;7.372;2023-03-21T06:11:45;17.53;;;11.30;;
47429;SDS011;33181;49.246;7.372;2023-03-21T06:14:13;17.20;;;10.70;;
47429;SDS011;33181;49.246;7.372;2023-03-21T06:16:39;13.70;;;9.97;;
47429;SDS011;33181;49.246;7.372;2023-03-21T06:19:05;14.67;;;9.60;;
47429;SDS011;33181;49.246;7.372;2023-03-21T06:21:31;14.10;;;9.90;;
47429;SDS011;33181;49.246;7.372;2023-03-21T06:23:57;15.73;;;9.93;;
47429;SDS011;33181;49.246;7.372;2023-03-21T06:26:22;14.27;;;10.23;;
47429;SDS011;33181;49.246;7.372;2023-03-21T06:28:48;16.70;;;10.30;;
47429;SDS011;33181;49.246;7.372;2023-03-21T06:31:14;15.93;;;10.47;;
47429;SDS011;33181;49.246;7.372;2023-03-21T06:33:40;15.23;;;10.60;;
47429;SDS011;33181;49.246;7.372;2023-03-21T06:36:07;15.00;;;10.20;;
47429;SDS011;33181;49.246;7.372;2023-03-21T06:38:33;15.40;;;10.67;;
47429;SDS011;33181;49.246;7.372;2023-03-21T06:41:02;12.83;;;10.03;;
47429;SDS011;33181;49.246;7.372;2023-03-21T06:43:32;13.57;;;9.37;;
47429;SDS011;33181;49.246;7.372;2023-03-21T06:45:59;14.97;;;10.27;;
47429;SDS011;33181;49.246;7.372;2023-03-21T06:48:26;13.67;;;9.23;;
47429;SDS011;33181;49.246;7.372;2023-03-21T06:50:52;21.87;;;11.10;;
47429;SDS011;33181;49.246;7.372;2023-03-21T06:53:20;14.30;;;9.40;;
47429;SDS011;33181;49.246;7.372;2023-03-21T06:55:54;15.70;;;9.93;;
47429;SDS011;33181;49.246;7.372;2023-03-21T06:58:21;16.80;;;10.13;;
47429;SDS011;33181;49.246;7.372;2023-03-21T07:00:47;20.93;;;11.60;;
47429;SDS011;33181;49.246;7.372;2023-03-21T07:03:14;18.70;;;10.60;;
47429;SDS011;33181;49.246;7.372;2023-03-21T07:05:40;16.33;;;11.67;;
47429;SDS011;33181;49.246;7.372;2023-03-21T07:08:07;14.60;;;10.00;;
47429;SDS011;33181;49.246;7.372;2023-03-21T07:10:40;13.83;;;10.40;;
47429;SDS011;33181;49.246;7.372;2023-03-21T07:13:07;14.90;;;10.77;;
47429;SDS011;33181;49.246;7.372;2023-03-21T07:15:33;14.87;;;10.30;;
47429;SDS011;33181;49.246;7.372;2023-03-21T07:18:02;15.90;;;10.70;;
47429;SDS011;33181;49.246;7.372;2023-03-21T07:20:32;14.90;;;10.57;;
47429;SDS011;33181;49.246;7.372;2023-03-21T07:23:02;15.20;;;10.23;;
47429;SDS011;33181;49.246;7.372;2023-03-21T07:25:28;14.20;;;9.57;;
47429;SDS011;33181;49.246;7.372;2023-03-21T07:27:54;13.00;;;9.17;;
47429;SDS011;33181;49.246;7.372;2023-03-21T07:30:21;15.30;;;9.10;;
47429;SDS011;33181;49.246;7.372;2023-03-21T07:32:47;13.30;;;9.30;;
47429;SDS011;33181;49.246;7.372;2023-03-21T07:35:14;17.37;;;8.60;;
47429;SDS011;33181;49.246;7.372;2023-03-21T07:37:41;16.90;;;9.37;;
47429;SDS011;33181;49.246;7.372;2023-03-21T07:40:07;16.10;;;10.50;;
47429;SDS011;33181;49.246;7.372;2023-03-21T07:42:38;19.73;;;9.87;;
47429;SDS011;33181;49.246;7.372;2023-03-21T07:45:05;16.70;;;9.93;;
47429;SDS011;33181;49.246;7.372;2023-03-21T07:47:33;15.00;;;10.00;;
47429;SDS011;33181;49.246;7.372;2023-03-21T07:49:59;20.03;;;10.30;;
47429;SDS011;33181;49.246;7.372;2023-03-21T07:52:25;14.27;;;8.73;;
47429;SDS011;33181;49.246;7.372;2023-03-21T07:54:51;18.77;;;10.30;;
47429;SDS011;33181;49.246;7.372;2023-03-21T07:57:17;13.60;;;8.90;;
47429;SDS011;33181;49.246;7.372;2023-03-21T07:59:43;14.23;;;8.53;;
47429;SDS011;33181;49.246;7.372;2023-03-21T08:02:15;13.73;;;7.80;;
47429;SDS011;33181;49.246;7.372;2023-03-21T08:04:44;13.10;;;8.63;;
47429;SDS011;33181;49.246;7.372;2023-03-21T08:07:10;11.70;;;8.43;;
47429;SDS011;33181;49.246;7.372;2023-03-21T08:09:37;12.67;;;8.07;;
47429;SDS011;33181;49.246;7.372;2023-03-21T08:12:03;16.23;;;8.30;;
47429;SDS011;33181;49.246;7.372;2023-03-21T08:14:32;16.50;;;8.80;;
47429;SDS011;33181;49.246;7.372;2023-03-21T08:16:58;13.67;;;8.90;;
47429;SDS011;33181;49.246;7.372;2023-03-21T08:19:24;17.43;;;9.10;;
47429;SDS011;33181;49.246;7.372;2023-03-21T08:21:51;12.80;;;9.00;;
47429;SDS011;33181;49.246;7.372;2023-03-21T08:24:17;15.30;;;8.97;;
47429;SDS011;33181;49.246;7.372;2023-03-21T08:26:43;16.10;;;8.73;;
47429;SDS011;33181;49.246;7.372;2023-03-21T08:29:10;16.23;;;9.47;;
47429;SDS011;33181;49.246;7.372;2023-03-21T08:31:38;11.30;;;8.13;;
47429;SDS011;33181;49.246;7.372;2023-03-21T08:34:05;13.50;;;9.00;;
47429;SDS011;33181;49.246;7.372;2023-03-21T08:36:31;13.93;;;8.10;;
47429;SDS011;33181;49.246;7.372;2023-03-21T08:39:00;14.70;;;8.20;;
47429;SDS011;33181;49.246;7.372;2023-03-21T08:41:32;13.77;;;8.43;;
47429;SDS011;33181;49.246;7.372;2023-03-21T08:44:01;14.40;;;8.43;;
47429;SDS011;33181;49.246;7.372;2023-03-21T08:46:28;12.67;;;7.83;;
47429;SDS011;33181;49.246;7.372;2023-03-21T08:48:55;20.60;;;9.00;;
47429;SDS011;33181;49.246;7.372;2023-03-21T08:51:21;11.83;;;8.70;;
47429;SDS011;33181;49.246;7.372;2023-03-21T08:53:47;11.90;;;8.33;;
47429;SDS011;33181;49.246;7.372;2023-03-21T08:56:16;12.80;;;8.50;;
47429;SDS011;33181;49.246;7.372;2023-03-21T08:58:42;13.43;;;8.23;;
47429;SDS011;33181;49.246;7.372;2023-03-21T09:01:09;9.50;;;7.50;;
47429;SDS011;33181;49.246;7.372;2023-03-21T09:03:39;9.20;;;7.20;;
47429;SDS011;33181;49.246;7.372;2023-03-21T09:06:06;11.27;;;7.10;;
47429;SDS011;33181;49.246;7.372;2023-03-21T09:08:36;9.43;;;7.00;;
47429;SDS011;33181;49.246;7.372;2023-03-21T09:11:02;10.80;;;6.87;;
47429;SDS011;33181;49.246;7.372;2023-03-21T09:13:28;10.27;;;6.43;;
47429;SDS011;33181;49.246;7.372;2023-03-21T09:15:54;9.70;;;6.67;;
47429;SDS011;33181;49.246;7.372;2023-03-21T09:18:25;10.27;;;6.40;;
47429;SDS011;33181;49.246;7.372;2023-03-21T09:21:09;9.10;;;6.50;;
47429;SDS011;33181;49.246;7.372;2023-03-21T09:23:37;8.77;;;6.23;;
47429;SDS011;33181;49.246;7.372;2023-03-21T09:26:08;7.57;;;5.87;;
47429;SDS011;33181;49.246;7.372;2023-03-21T09:28:35;8.30;;;6.07;;
47429;SDS011;33181;49.246;7.372;2023-03-21T09:31:02;8.93;;;6.40;;
47429;SDS011;33181;49.246;7.372;2023-03-21T09:33:30;8.70;;;6.43;;
47429;SDS011;33181;49.246;7.372;2023-03-21T09:35:56;8.60;;;6.57;;
47429;SDS011;33181;49.246;7.372;2023-03-21T09:38:24;9.90;;;6.80;;
47429;SDS011;33181;49.246;7.372;2023-03-21T09:41:04;9.53;;;6.40;;
47429;SDS011;33181;49.246;7.372;2023-03-21T09:47:03;11.13;;;7.50;;
47429;SDS011;33181;49.246;7.372;2023-03-21T09:49:53;10.50;;;7.43;;
47429;SDS011;33181;49.246;7.372;2023-03-21T09:52:54;8.43;;;6.30;;
47429;SDS011;33181;49.246;7.372;2023-03-21T09:55:30;9.60;;;5.97;;
47429;SDS011;33181;49.246;7.372;2023-03-21T10:01:02;7.37;;;5.93;;
47429;SDS011;33181;49.246;7.372;2023-03-21T10:03:51;7.20;;;5.70;;
47429;SDS011;33181;49.246;7.372;2023-03-21T10:06:18;10.47;;;6.00;;
47429;SDS011;33181;49.246;7.372;2023-03-21T10:08:53;8.57;;;5.80;;
47429;SDS011;33181;49.246;7.372;2023-03-21T10:11:41;7.23;;;5.63;;
47429;SDS011;33181;49.246;7.372;2023-03-21T10:14:28;10.10;;;5.87;;
47429;SDS011;33181;49.246;7.372;2023-03-21T10:17:34;7.00;;;4.93;;
47429;SDS011;33181;49.246;7.372;2023-03-21T10:20:15;6.23;;;5.10;;
47429;SDS011;33181;49.246;7.372;2023-03-21T10:22:51;8.80;;;5.83;;
47429;SDS011;33181;49.246;7.372;2023-03-21T10:25:25;8.17;;;4.97;;
47429;SDS011;33181;49.246;7.372;2023-03-21T10:27:59;8.77;;;4.80;;
47429;SDS011;33181;49.246;7.372;2023-03-21T10:30:29;6.10;;;4.40;;
47429;SDS011;33181;49.246;7.372;2023-03-21T10:33:07;8.03;;;4.67;;
47429;SDS011;33181;49.246;7.372;2023-03-21T10:35:39;7.87;;;4.90;;
47429;SDS011;33181;49.246;7.372;2023-03-21T10:38:20;7.57;;;4.60;;
47429;SDS011;33181;49.246;7.372;2023-03-21T10:40:50;8.97;;;4.93;;
47429;SDS011;33181;49.246;7.372;2023-03-21T10:45:51;6.30;;;4.90;;
47429;SDS011;33181;49.246;7.372;2023-03-21T10:48:19;6.27;;;4.30;;
47429;SDS011;33181;49.246;7.372;2023-03-21T10:50:47;8.53;;;5.70;;
47429;SDS011;33181;49.246;7.372;2023-03-21T10:53:20;8.40;;;5.30;;
47429;SDS011;33181;49.246;7.372;2023-03-21T10:55:53;6.73;;;5.07;;
47429;SDS011;33181;49.246;7.372;2023-03-21T10:58:27;8.67;;;5.77;;
47429;SDS011;33181;49.246;7.372;2023-03-21T11:01:03;6.07;;;4.30;;
47429;SDS011;33181;49.246;7.372;2023-03-21T11:03:37;9.00;;;6.30;;
47429;SDS011;33181;49.246;7.372;2023-03-21T11:09:00;7.83;;;5.10;;
47429;SDS011;33181;49.246;7.372;2023-03-21T11:11:39;8.90;;;5.63;;
47429;SDS011;33181;49.246;7.372;2023-03-21T11:17:00;9.63;;;6.60;;
47429;SDS011;33181;49.246;7.372;2023-03-21T11:19:32;8.80;;;5.60;;
47429;SDS011;33181;49.246;7.372;2023-03-21T11:22:04;8.80;;;5.90;;
47429;SDS011;33181;49.246;7.372;2023-03-21T11:24:31;7.63;;;5.77;;
47429;SDS011;33181;49.246;7.372;2023-03-21T11:26:58;8.00;;;5.57;;
47429;SDS011;33181;49.246;7.372;2023-03-21T11:29:32;8.20;;;5.83;;
47429;SDS011;33181;49.246;7.372;2023-03-21T11:34:57;8.80;;;6.13;;
47429;SDS011;33181;49.246;7.372;2023-03-21T11:37:50;8.27;;;5.90;;
47429;SDS011;33181;49.246;7.372;2023-03-21T11:40:28;10.20;;;6.17;;
47429;SDS011;33181;49.246;7.372;2023-03-21T11:43:01;8.90;;;5.80;;
47429;SDS011;33181;49.246;7.372;2023-03-21T11:45:58;7.23;;;5.50;;
47429;SDS011;33181;49.246;7.372;2023-03-21T11:48:35;8.07;;;5.70;;
47429;SDS011;33181;49.246;7.372;2023-03-21T11:54:04;10.63;;;5.90;;
47429;SDS011;33181;49.246;7.372;2023-03-21T11:57:01;8.00;;;5.70;;
47429;SDS011;33181;49.246;7.372;2023-03-21T11:59:51;8.00;;;5.70;;
47429;SDS011;33181;49.246;7.372;2023-03-21T12:05:33;6.97;;;5.50;;
47429;SDS011;33181;49.246;7.372;2023-03-21T12:08:19;7.57;;;5.23;;
47429;SDS011;33181;49.246;7.372;2023-03-21T12:11:13;7.80;;;5.63;;
47429;SDS011;33181;49.246;7.372;2023-03-21T12:13:49;7.67;;;5.70;;
47429;SDS011;33181;49.246;7.372;2023-03-21T12:16:55;8.30;;;6.17;;
47429;SDS011;33181;49.246;7.372;2023-03-21T12:19:47;7.23;;;5.60;;
47429;SDS011;33181;49.246;7.372;2023-03-21T12:28:15;7.10;;;5.47;;
47429;SDS011;33181;49.246;7.372;2023-03-21T12:31:31;9.50;;;5.70;;
47429;SDS011;33181;49.246;7.372;2023-03-21T12:37:50;7.77;;;4.93;;
47429;SDS011;33181;49.246;7.372;2023-03-21T12:49:21;8.27;;;5.40;;
47429;SDS011;33181;49.246;7.372;2023-03-21T12:52:13;8.57;;;6.37;;
47429;SDS011;33181;49.246;7.372;2023-03-21T12:55:09;8.00;;;5.80;;
47429;SDS011;33181;49.246;7.372;2023-03-21T12:57:47;9.03;;;6.43;;
47429;SDS011;33181;49.246;7.372;2023-03-21T13:00:27;9.27;;;6.00;;
47429;SDS011;33181;49.246;7.372;2023-03-21T13:03:12;10.27;;;6.93;;
47429;SDS011;33181;49.246;7.372;2023-03-21T13:06:19;8.20;;;5.70;;
47429;SDS011;33181;49.246;7.372;2023-03-21T13:11:46;8.17;;;5.67;;
47429;SDS011;33181;49.246;7.372;2023-03-21T13:14:16;7.20;;;5.20;;
47429;SDS011;33181;49.246;7.372;2023-03-21T13:19:35;7.30;;;4.90;;
47429;SDS011;33181;49.246;7.372;2023-03-21T13:27:54;7.17;;;5.07;;
47429;SDS011;33181;49.246;7.372;2023-03-21T13:30:28;8.47;;;6.23;;
47429;SDS011;33181;49.246;7.372;2023-03-21T13:35:38;12.63;;;6.90;;
47429;SDS011;33181;49.246;7.372;2023-03-21T13:40:49;11.30;;;8.33;;
47429;SDS011;33181;49.246;7.372;2023-03-21T13:43:34;11.07;;;8.00;;
47429;SDS011;33181;49.246;7.372;2023-03-21T13:46:15;8.47;;;5.77;;
47429;SDS011;33181;49.246;7.372;2023-03-21T13:51:39;7.27;;;4.70;;
47429;SDS011;33181;49.246;7.372;2023-03-21T13:57:03;15.83;;;9.00;;
47429;SDS011;33181;49.246;7.372;2023-03-21T13:59:35;9.93;;;7.40;;
47429;SDS011;33181;49.246;7.372;2023-03-21T14:05:05;9.30;;;6.57;;
47429;SDS011;33181;49.246;7.372;2023-03-21T14:07:45;6.63;;;5.40;;
47429;SDS011;33181;49.246;7.372;2023-03-21T14:10:27;6.63;;;5.17;;
47429;SDS011;33181;49.246;7.372;2023-03-21T14:12:58;6.57;;;4.57;;
47429;SDS011;33181;49.246;7.372;2023-03-21T14:15:27;8.70;;;5.07;;
47429;SDS011;33181;49.246;7.372;2023-03-21T14:18:20;7.93;;;6.03;;
47429;SDS011;33181;49.246;7.372;2023-03-21T14:20:51;7.20;;;5.60;;
47429;SDS011;33181;49.246;7.372;2023-03-21T14:23:22;8.83;;;5.33;;
47429;SDS011;33181;49.246;7.372;2023-03-21T14:25:49;7.20;;;4.80;;
47429;SDS011;33181;49.246;7.372;2023-03-21T14:28:20;8.50;;;5.10;;
47429;SDS011;33181;49.246;7.372;2023-03-21T14:30:51;7.40;;;4.50;;
47429;SDS011;33181;49.246;7.372;2023-03-21T14:36:20;5.50;;;4.60;;
47429;SDS011;33181;49.246;7.372;2023-03-21T14:39:06;6.13;;;4.80;;
47429;SDS011;33181;49.246;7.372;2023-03-21T14:42:03;6.20;;;4.13;;
47429;SDS011;33181;49.246;7.372;2023-03-21T14:44:41;7.87;;;5.00;;
47429;SDS011;33181;49.246;7.372;2023-03-21T14:47:18;6.77;;;4.50;;
47429;SDS011;33181;49.246;7.372;2023-03-21T14:49:47;8.90;;;4.57;;
47429;SDS011;33181;49.246;7.372;2023-03-21T14:52:22;4.80;;;3.90;;
47429;SDS011;33181;49.246;7.372;2023-03-21T14:54:58;5.73;;;4.20;;
47429;SDS011;33181;49.246;7.372;2023-03-21T14:57:28;5.50;;;4.30;;
47429;SDS011;33181;49.246;7.372;2023-03-21T14:59:59;4.67;;;3.60;;
47429;SDS011;33181;49.246;7.372;2023-03-21T15:02:37;5.97;;;3.90;;
47429;SDS011;33181;49.246;7.372;2023-03-21T15:05:16;6.70;;;4.30;;
47429;SDS011;33181;49.246;7.372;2023-03-21T15:07:53;4.80;;;3.97;;
47429;SDS011;33181;49.246;7.372;2023-03-21T15:11:00;7.23;;;3.80;;
47429;SDS011;33181;49.246;7.372;2023-03-21T15:13:51;4.20;;;3.60;;
47429;SDS011;33181;49.246;7.372;2023-03-21T15:16:19;5.87;;;4.10;;
47429;SDS011;33181;49.246;7.372;2023-03-21T15:18:45;4.30;;;3.77;;
47429;SDS011;33181;49.246;7.372;2023-03-21T15:23:46;4.23;;;3.53;;
47429;SDS011;33181;49.246;7.372;2023-03-21T15:26:25;4.33;;;3.67;;
47429;SDS011;33181;49.246;7.372;2023-03-21T15:28:56;4.00;;;3.53;;
47429;SDS011;33181;49.246;7.372;2023-03-21T15:31:28;5.10;;;3.43;;
47429;SDS011;33181;49.246;7.372;2023-03-21T15:33:58;4.80;;;3.30;;
47429;SDS011;33181;49.246;7.372;2023-03-21T15:36:26;5.60;;;3.50;;
47429;SDS011;33181;49.246;7.372;2023-03-21T15:38:59;3.97;;;3.17;;
47429;SDS011;33181;49.246;7.372;2023-03-21T15:41:29;4.03;;;2.97;;
47429;SDS011;33181;49.246;7.372;2023-03-21T15:44:01;4.33;;;3.27;;
47429;SDS011;33181;49.246;7.372;2023-03-21T15:46:53;5.80;;;3.07;;
47429;SDS011;33181;49.246;7.372;2023-03-21T15:51:53;4.00;;;3.20;;
47429;SDS011;33181;49.246;7.372;2023-03-21T15:54:27;5.03;;;3.07;;
47429;SDS011;33181;49.246;7.372;2023-03-21T16:00:39;4.27;;;3.00;;
47429;SDS011;33181;49.246;7.372;2023-03-21T16:02:53;5.23;;;3.80;;
47429;SDS011;33181;49.246;7.372;2023-03-21T16:05:28;4.97;;;3.37;;
47429;SDS011;33181;49.246;7.372;2023-03-21T16:07:57;3.20;;;2.90;;
47429;SDS011;33181;49.246;7.372;2023-03-21T16:10:42;4.20;;;3.00;;
47429;SDS011;33181;49.246;7.372;2023-03-21T16:13:09;4.87;;;3.13;;
47429;SDS011;33181;49.246;7.372;2023-03-21T16:15:37;4.47;;;3.03;;
47429;SDS011;33181;49.246;7.372;2023-03-21T16:18:04;3.70;;;3.13;;
47429;SDS011;33181;49.246;7.372;2023-03-21T16:20:32;5.67;;;3.10;;
47429;SDS011;33181;49.246;7.372;2023-03-21T16:23:04;7.57;;;3.30;;
47429;SDS011;33181;49.246;7.372;2023-03-21T16:25:30;5.90;;;3.30;;
47429;SDS011;33181;49.246;7.372;2023-03-21T16:27:57;4.00;;;3.00;;
47429;SDS011;33181;49.246;7.372;2023-03-21T16:30:23;8.97;;;3.00;;
47429;SDS011;33181;49.246;7.372;2023-03-21T16:32:49;4.20;;;3.27;;
47429;SDS011;33181;49.246;7.372;2023-03-21T16:35:15;3.60;;;2.97;;
47429;SDS011;33181;49.246;7.372;2023-03-21T16:37:42;4.87;;;3.33;;
47429;SDS011;33181;49.246;7.372;2023-03-21T16:40:11;5.20;;;4.20;;
47429;SDS011;33181;49.246;7.372;2023-03-21T16:42:47;8.70;;;6.47;;
47429;SDS011;33181;49.246;7.372;2023-03-21T16:45:13;4.80;;;3.97;;
47429;SDS011;33181;49.246;7.372;2023-03-21T16:47:39;6.00;;;3.23;;
47429;SDS011;33181;49.246;7.372;2023-03-21T16:50:38;6.53;;;3.37;;
47429;SDS011;33181;49.246;7.372;2023-03-21T16:52:58;13.47;;;8.57;;
47429;SDS011;33181;49.246;7.372;2023-03-21T16:55:27;10.03;;;6.70;;
47429;SDS011;33181;49.246;7.372;2023-03-21T16:57:53;5.90;;;4.53;;
47429;SDS011;33181;49.246;7.372;2023-03-21T17:00:23;5.60;;;4.23;;
47429;SDS011;33181;49.246;7.372;2023-03-21T17:02:52;5.50;;;3.90;;